Time;durP1;ratioP1;P1;durP2;ratioP2;P2;SDS_P1;SDS_P2;PMS_P1;PMS_P2;Temp;Humidity;BMP_temperature;BMP_pressure;BME280_temperature;BME280_humidity;BME280_pressure;Samples;Min_cycle;Max_cycle;Signal;HPM_P1;HPM_P2
2022/03/21 00:00:39;;;;;;;32.78;24.48;;;3.50;99.90;;;;;;5093080;28;20043;-73
2022/03/21 00:03:06;;;;;;;32.35;23.77;;;3.50;99.90;;;;;;5092599;28;20048;-73
2022/03/21 00:05:33;;;;;;;29.63;23.48;;;3.40;99.90;;;;;;5092316;28;20053;-73
2022/03/21 00:07:58;;;;;;;30.58;23.30;;;3.40;99.90;;;;;;5091116;28;20491;-73
2022/03/21 00:10:24;;;;;;;30.77;23.55;;;3.30;99.90;;;;;;5095214;28;20043;-74
2022/03/21 00:12:51;;;;;;;35.28;25.38;;;3.30;99.90;;;;;;5073205;28;20070;-73
2022/03/21 00:15:19;;;;;;;43.30;30.08;;;3.30;99.90;;;;;;5075451;28;20055;-74
2022/03/21 00:17:44;;;;;;;40.72;28.58;;;3.40;99.90;;;;;;5092635;28;20040;-73
2022/03/21 00:20:15;;;;;;;44.00;30.00;;;3.30;99.90;;;;;;5092498;28;21838;-74
2022/03/21 00:22:42;;;;;;;44.22;30.73;;;3.30;99.90;;;;;;5093003;28;20044;-73
2022/03/21 00:25:08;;;;;;;42.67;30.85;;;3.30;99.90;;;;;;5094355;28;20048;-73
2022/03/21 00:27:35;;;;;;;37.55;28.33;;;3.30;99.90;;;;;;5108152;28;20397;-73
2022/03/21 00:30:01;;;;;;;41.22;29.38;;;3.30;99.90;;;;;;5095378;28;20374;-73
2022/03/21 00:32:27;;;;;;;41.03;30.17;;;3.30;99.90;;;;;;5096945;27;21452;-73
2022/03/21 00:34:53;;;;;;;43.58;30.98;;;3.20;99.90;;;;;;5101860;28;20437;-73
2022/03/21 00:37:19;;;;;;;44.60;31.23;;;3.20;99.90;;;;;;5097269;28;20044;-72
2022/03/21 00:39:44;;;;;;;45.38;32.38;;;3.20;99.90;;;;;;5093434;28;20139;-72
2022/03/21 00:42:10;;;;;;;45.72;31.70;;;3.20;99.90;;;;;;5072649;28;20124;-72
2022/03/21 00:44:37;;;;;;;43.88;30.17;;;3.20;99.90;;;;;;5094206;28;20036;-72
2022/03/21 00:47:03;;;;;;;44.35;30.67;;;3.20;99.90;;;;;;5094881;28;20785;-72
2022/03/21 00:49:29;;;;;;;45.53;32.15;;;3.20;99.90;;;;;;5096678;28;20083;-72
2022/03/21 00:51:54;;;;;;;45.00;30.08;;;3.20;99.90;;;;;;5092851;28;20110;-72
2022/03/21 00:54:20;;;;;;;43.15;29.75;;;3.20;99.90;;;;;;5095188;28;20452;-72
2022/03/21 00:56:45;;;;;;;43.33;31.08;;;3.10;99.90;;;;;;5077328;28;20475;-72
2022/03/21 00:59:11;;;;;;;44.28;31.77;;;3.20;99.90;;;;;;5094252;28;20450;-72
2022/03/21 01:01:36;;;;;;;46.40;30.75;;;3.20;99.90;;;;;;5094279;28;20082;-72
2022/03/21 01:04:02;;;;;;;44.92;31.05;;;3.10;99.90;;;;;;5091801;28;20032;-72
2022/03/21 01:06:28;;;;;;;45.97;31.20;;;3.10;99.90;;;;;;5089349;27;20043;-73
2022/03/21 01:08:54;;;;;;;44.22;29.48;;;3.10;99.90;;;;;;5093870;28;20040;-73
2022/03/21 01:11:19;;;;;;;45.97;31.15;;;3.10;99.90;;;;;;5091992;28;20071;-73
2022/03/21 01:13:45;;;;;;;43.97;30.23;;;3.00;99.90;;;;;;5091620;28;20040;-72
2022/03/21 01:16:11;;;;;;;44.85;29.80;;;3.00;99.90;;;;;;5075121;28;20050;-72
2022/03/21 01:18:36;;;;;;;43.25;30.13;;;3.00;99.90;;;;;;5072075;28;20059;-72
2022/03/21 01:21:02;;;;;;;42.58;30.02;;;3.00;99.90;;;;;;5091243;28;20047;-72
2022/03/21 01:23:28;;;;;;;44.10;29.27;;;3.00;99.90;;;;;;5094290;27;20043;-72
2022/03/21 01:25:53;;;;;;;41.95;29.05;;;3.00;99.90;;;;;;5091988;28;20051;-72
2022/03/21 01:28:19;;;;;;;46.17;29.48;;;2.90;99.90;;;;;;5092622;28;20123;-72
2022/03/21 01:30:44;;;;;;;42.50;29.60;;;2.90;99.90;;;;;;5092999;28;20461;-72
2022/03/21 01:33:10;;;;;;;38.70;26.83;;;2.90;99.90;;;;;;5090693;28;20043;-72
2022/03/21 01:35:36;;;;;;;37.00;26.60;;;2.90;99.90;;;;;;5093834;28;20035;-72
2022/03/21 01:38:01;;;;;;;38.80;26.30;;;2.90;99.90;;;;;;5092844;28;20112;-72
2022/03/21 01:40:27;;;;;;;37.60;24.70;;;2.90;99.90;;;;;;5075938;28;20502;-72
2022/03/21 01:42:52;;;;;;;31.75;23.27;;;2.90;99.90;;;;;;5088711;28;20028;-73
2022/03/21 01:45:19;;;;;;;32.15;22.92;;;2.90;99.90;;;;;;5094010;28;20054;-72
2022/03/21 01:47:46;;;;;;;27.75;20.85;;;2.90;99.90;;;;;;5092219;28;20206;-73
2022/03/21 01:50:13;;;;;;;28.38;20.73;;;2.80;99.90;;;;;;5092686;28;20063;-73
2022/03/21 01:52:42;;;;;;;27.52;21.00;;;2.80;99.90;;;;;;5093132;28;20039;-72
2022/03/21 01:57:53;;;;;;;29.77;22.55;;;2.80;99.90;;;;;;5088630;27;20127;-72
2022/03/21 02:00:19;;;;;;;34.50;23.95;;;2.80;99.90;;;;;;5075534;28;20039;-72
2022/03/21 02:02:44;;;;;;;32.95;23.25;;;2.80;99.90;;;;;;5089821;28;20217;-72
2022/03/21 02:05:10;;;;;;;31.83;24.10;;;2.80;99.90;;;;;;5093975;28;20139;-72
2022/03/21 02:07:36;;;;;;;37.10;25.65;;;2.80;99.90;;;;;;5089811;28;20056;-72
2022/03/21 02:10:04;;;;;;;36.78;26.10;;;2.80;99.90;;;;;;5093243;28;20298;-73
2022/03/21 02:12:30;;;;;;;35.80;26.63;;;2.80;99.90;;;;;;5073148;28;20214;-72
2022/03/21 02:14:56;;;;;;;39.47;28.23;;;2.70;99.90;;;;;;5078348;28;20542;-73
2022/03/21 02:17:24;;;;;;;41.03;29.05;;;2.70;99.90;;;;;;5089757;28;20039;-73
2022/03/21 02:19:50;;;;;;;42.42;28.75;;;2.70;99.90;;;;;;5091681;28;20039;-73
2022/03/21 02:22:37;;;;;;;43.33;30.08;;;2.70;99.90;;;;;;5087128;28;20064;-73
2022/03/21 02:25:14;;;;;;;43.13;30.13;;;2.70;99.90;;;;;;5107547;28;20128;-73
2022/03/21 02:27:41;;;;;;;43.58;28.52;;;2.70;99.90;;;;;;5059925;28;20044;-72
2022/03/21 02:30:07;;;;;;;44.22;29.42;;;2.70;99.90;;;;;;5099091;28;20512;-72
2022/03/21 02:32:34;;;;;;;47.88;29.55;;;2.70;99.90;;;;;;5080037;28;20039;-72
2022/03/21 02:35:00;;;;;;;46.03;30.73;;;2.70;99.90;;;;;;5107246;28;20044;-73
2022/03/21 02:37:26;;;;;;;44.15;30.23;;;2.70;99.90;;;;;;5090728;28;20069;-73
2022/03/21 02:39:54;;;;;;;45.20;31.10;;;2.60;99.90;;;;;;5100552;28;20036;-72
2022/03/21 02:42:19;;;;;;;45.38;31.17;;;2.70;99.90;;;;;;5095207;28;20580;-73
2022/03/21 02:44:45;;;;;;;42.85;29.58;;;2.70;99.90;;;;;;5101034;28;20035;-73
2022/03/21 02:47:10;;;;;;;44.78;29.90;;;2.70;99.90;;;;;;5099883;28;20060;-73
2022/03/21 02:49:37;;;;;;;45.53;28.20;;;2.60;99.90;;;;;;5083897;28;20042;-72
2022/03/21 02:52:04;;;;;;;44.08;29.17;;;2.60;99.90;;;;;;5099530;28;20101;-72
2022/03/21 02:54:31;;;;;;;44.22;28.40;;;2.70;99.90;;;;;;5077817;28;20059;-72
2022/03/21 02:56:57;;;;;;;44.15;30.15;;;2.70;99.90;;;;;;5095597;28;20035;-72
2022/03/21 02:59:24;;;;;;;41.33;28.38;;;2.70;99.90;;;;;;5089355;28;20055;-72
2022/03/21 03:01:53;;;;;;;40.33;28.00;;;2.70;99.90;;;;;;5093678;28;20048;-72
2022/03/21 03:04:20;;;;;;;42.95;28.10;;;2.70;99.90;;;;;;5107780;28;21666;-72
2022/03/21 03:06:46;;;;;;;41.15;28.75;;;2.70;99.90;;;;;;5100347;28;20052;-72
2022/03/21 03:09:11;;;;;;;42.92;28.25;;;2.70;99.90;;;;;;5104095;28;20039;-72
2022/03/21 03:11:38;;;;;;;42.03;28.92;;;2.60;99.90;;;;;;5092630;28;20127;-72
2022/03/21 03:14:04;;;;;;;44.15;28.42;;;2.60;99.90;;;;;;5087029;28;20089;-72
2022/03/21 03:16:30;;;;;;;42.53;29.13;;;2.60;99.90;;;;;;5103089;28;20094;-72
2022/03/21 03:18:56;;;;;;;43.53;28.88;;;2.60;99.90;;;;;;5091730;28;20086;-73
2022/03/21 03:21:24;;;;;;;45.38;29.75;;;2.60;99.90;;;;;;5104351;28;20074;-72
2022/03/21 03:23:52;;;;;;;42.83;28.13;;;2.50;99.90;;;;;;5090624;28;20074;-73
2022/03/21 03:26:18;;;;;;;45.30;28.13;;;2.50;99.90;;;;;;5077794;28;20095;-72
2022/03/21 03:28:45;;;;;;;42.42;28.35;;;2.50;99.90;;;;;;5062788;28;20059;-72
2022/03/21 03:31:13;;;;;;;39.70;27.85;;;2.50;99.90;;;;;;5064861;28;20068;-72
2022/03/21 03:33:39;;;;;;;40.05;26.92;;;2.50;99.90;;;;;;5085902;28;20092;-72
2022/03/21 03:36:06;;;;;;;40.67;26.02;;;2.40;99.90;;;;;;5107105;28;20047;-72
2022/03/21 03:38:31;;;;;;;38.83;26.20;;;2.40;99.90;;;;;;5106484;28;20046;-72
2022/03/21 03:40:57;;;;;;;41.75;26.45;;;2.40;99.90;;;;;;5105258;28;20039;-72
2022/03/21 03:43:23;;;;;;;42.53;27.25;;;2.40;99.90;;;;;;5084375;28;20067;-72
2022/03/21 03:45:52;;;;;;;37.22;25.00;;;2.40;99.90;;;;;;5103553;28;20494;-72
2022/03/21 03:48:21;;;;;;;37.92;26.20;;;2.40;99.90;;;;;;5101791;28;20093;-72
2022/03/21 03:50:47;;;;;;;34.95;24.58;;;2.40;99.90;;;;;;5096195;28;20052;-72
2022/03/21 03:53:13;;;;;;;38.22;25.10;;;2.40;99.90;;;;;;5094756;28;20463;-72
2022/03/21 03:55:39;;;;;;;34.83;23.63;;;2.40;99.90;;;;;;5095883;27;20078;-72
2022/03/21 03:58:04;;;;;;;42.60;26.98;;;2.40;99.90;;;;;;5095115;28;20481;-72
2022/03/21 04:00:30;;;;;;;34.15;22.80;;;2.40;99.90;;;;;;5090672;28;20075;-72
2022/03/21 04:05:40;;;;;;;37.60;24.55;;;2.40;99.90;;;;;;5094195;28;20044;-72
2022/03/21 04:08:06;;;;;;;36.63;24.02;;;2.40;99.90;;;;;;5097650;28;20381;-72
2022/03/21 04:10:32;;;;;;;37.70;24.27;;;2.40;99.90;;;;;;5092643;28;20550;-72
2022/03/21 04:12:58;;;;;;;35.45;23.30;;;2.30;99.90;;;;;;5078745;28;20048;-72
2022/03/21 04:15:24;;;;;;;37.35;26.00;;;2.30;99.90;;;;;;5096485;28;20474;-72
2022/03/21 04:17:50;;;;;;;37.38;24.83;;;2.30;99.90;;;;;;5097410;28;20092;-72
2022/03/21 04:20:16;;;;;;;37.42;23.55;;;2.30;99.90;;;;;;5095953;28;20039;-72
2022/03/21 04:22:42;;;;;;;35.38;24.02;;;2.30;99.90;;;;;;5097602;28;20040;-72
2022/03/21 04:25:13;;;;;;;37.70;23.80;;;2.30;99.90;;;;;;5098198;28;20085;-72
2022/03/21 04:27:39;;;;;;;35.95;25.40;;;2.30;99.90;;;;;;5090977;28;20126;-72
2022/03/21 04:30:06;;;;;;;36.05;24.05;;;2.30;99.90;;;;;;5098109;27;20135;-72
2022/03/21 04:32:32;;;;;;;32.97;22.10;;;2.20;99.90;;;;;;5096057;28;20129;-72
2022/03/21 04:34:57;;;;;;;37.60;24.17;;;2.30;99.90;;;;;;5094902;28;20032;-72
2022/03/21 04:37:23;;;;;;;33.22;21.83;;;2.20;99.90;;;;;;5108238;28;20135;-72
2022/03/21 04:39:48;;;;;;;30.98;21.75;;;2.20;99.90;;;;;;5103677;28;20043;-72
2022/03/21 04:42:15;;;;;;;34.63;22.90;;;2.20;99.90;;;;;;5092444;28;20149;-72
2022/03/21 04:44:40;;;;;;;36.63;24.02;;;2.20;99.90;;;;;;5095577;28;20054;-72
2022/03/21 04:47:07;;;;;;;35.80;23.08;;;2.20;99.90;;;;;;5097322;27;20051;-72
2022/03/21 04:49:33;;;;;;;39.67;24.92;;;2.20;99.90;;;;;;5097420;28;20439;-72
2022/03/21 04:51:58;;;;;;;37.03;23.83;;;2.20;99.90;;;;;;5107196;28;20043;-72
2022/03/21 04:54:27;;;;;;;35.55;23.45;;;2.20;99.90;;;;;;5104746;28;20035;-72
2022/03/21 04:56:52;;;;;;;36.35;23.95;;;2.10;99.90;;;;;;5093325;28;20048;-72
2022/03/21 04:59:18;;;;;;;34.22;22.27;;;2.20;99.90;;;;;;5074044;28;20446;-72
2022/03/21 05:01:43;;;;;;;36.30;22.52;;;2.10;99.90;;;;;;5091542;28;20039;-73
2022/03/21 05:04:09;;;;;;;34.45;22.75;;;2.10;99.90;;;;;;5077442;28;21337;-73
2022/03/21 05:06:34;;;;;;;35.58;22.77;;;2.10;99.90;;;;;;5096782;28;20035;-72
2022/03/21 05:09:03;;;;;;;34.03;22.67;;;2.10;99.90;;;;;;5095624;28;20040;-72
2022/03/21 05:11:29;;;;;;;32.25;22.23;;;2.10;99.90;;;;;;5092918;28;20056;-72
2022/03/21 05:13:55;;;;;;;35.75;23.58;;;2.10;99.90;;;;;;5090925;28;20055;-72
2022/03/21 05:16:21;;;;;;;32.63;21.08;;;2.10;99.90;;;;;;5094426;28;20051;-72
2022/03/21 05:18:47;;;;;;;32.38;21.77;;;2.10;99.90;;;;;;5092747;28;20039;-72
2022/03/21 05:21:13;;;;;;;30.27;21.67;;;2.10;99.90;;;;;;5095235;27;20096;-72
2022/03/21 05:31:51;;;;;;;33.70;20.60;;;2.10;99.90;;;;;;5091338;28;20055;-72
2022/03/21 05:37:00;;;;;;;27.35;19.10;;;2.00;99.90;;;;;;5095550;28;20465;-72
2022/03/21 05:39:26;;;;;;;29.85;19.23;;;2.00;99.90;;;;;;5079368;28;20129;-72
2022/03/21 05:41:52;;;;;;;28.30;19.00;;;2.00;99.90;;;;;;5074341;28;20043;-72
2022/03/21 05:44:18;;;;;;;29.45;18.98;;;2.00;99.90;;;;;;5091489;28;20078;-72
2022/03/21 05:46:44;;;;;;;26.20;18.13;;;1.90;99.90;;;;;;5091760;28;20346;-72
2022/03/21 05:49:10;;;;;;;26.02;17.73;;;1.90;99.90;;;;;;5091761;28;20044;-72
2022/03/21 05:51:37;;;;;;;27.10;17.83;;;2.00;99.90;;;;;;5056467;28;20040;-71
2022/03/21 05:54:05;;;;;;;25.58;16.80;;;1.90;99.90;;;;;;5094529;28;20059;-72
2022/03/21 05:56:32;;;;;;;25.98;17.55;;;2.00;99.90;;;;;;5114570;27;20131;-71
2022/03/21 06:00:20;;;;;;;25.42;16.33;;;2.00;99.90;;;;;;5090930;28;20071;-72
2022/03/21 06:01:49;;;;;;;21.17;15.25;;;2.00;99.90;;;;;;5081876;28;20059;-72
2022/03/21 06:04:15;;;;;;;23.48;16.10;;;2.00;99.90;;;;;;5104716;28;20036;-72
2022/03/21 06:06:41;;;;;;;24.55;15.25;;;2.00;99.90;;;;;;5105828;28;20122;-73
2022/03/21 06:09:07;;;;;;;26.90;17.17;;;2.10;99.90;;;;;;5089309;28;20750;-71
2022/03/21 06:11:34;;;;;;;23.83;17.40;;;2.00;99.90;;;;;;5086525;28;20250;-72
2022/03/21 06:14:00;;;;;;;25.13;16.88;;;2.10;99.90;;;;;;5078141;28;20567;-73
2022/03/21 06:16:26;;;;;;;25.45;17.42;;;2.10;99.90;;;;;;5100271;28;20155;-73
2022/03/21 06:18:54;;;;;;;25.67;17.25;;;2.10;99.90;;;;;;5103513;28;20036;-75
2022/03/21 06:21:20;;;;;;;23.77;16.17;;;2.10;99.90;;;;;;5094740;28;20154;-73
2022/03/21 06:23:46;;;;;;;23.45;17.05;;;2.10;99.90;;;;;;5099823;28;20128;-72
2022/03/21 06:26:12;;;;;;;24.08;16.45;;;2.20;99.90;;;;;;5101295;28;20051;-71
2022/03/21 06:28:37;;;;;;;23.63;17.33;;;2.20;99.90;;;;;;5090586;28;20360;-72
2022/03/21 06:31:04;;;;;;;25.35;17.70;;;2.20;99.90;;;;;;5090846;28;20072;-73
2022/03/21 06:33:31;;;;;;;28.48;18.73;;;2.20;99.90;;;;;;5106876;27;20040;-68
2022/03/21 06:36:00;;;;;;;29.52;19.35;;;2.30;99.90;;;;;;5086914;28;20386;-70
2022/03/21 06:38:25;;;;;;;28.75;17.60;;;2.30;99.90;;;;;;5075645;28;20044;-74
2022/03/21 06:40:51;;;;;;;25.95;18.70;;;2.40;99.90;;;;;;5070546;28;20092;-74
2022/03/21 06:43:17;;;;;;;24.80;17.42;;;2.40;99.90;;;;;;5075630;28;20052;-73
2022/03/21 06:45:43;;;;;;;30.15;19.75;;;2.50;99.90;;;;;;5079154;28;20048;-73
2022/03/21 06:48:09;;;;;;;28.00;18.55;;;2.50;99.90;;;;;;5088538;28;20173;-72
2022/03/21 06:50:35;;;;;;;26.17;17.45;;;2.50;99.90;;;;;;5104837;28;20126;-68
2022/03/21 06:53:00;;;;;;;23.17;16.80;;;2.60;99.90;;;;;;5107029;28;20468;-70
2022/03/21 06:55:26;;;;;;;23.88;16.80;;;2.60;99.90;;;;;;5105882;28;20031;-72
2022/03/21 06:57:52;;;;;;;24.02;16.70;;;2.60;99.90;;;;;;5090734;28;20064;-71
2022/03/21 07:00:17;;;;;;;19.67;13.73;;;2.70;99.90;;;;;;5105017;28;20063;-72
2022/03/21 07:02:44;;;;;;;24.42;16.95;;;2.80;99.90;;;;;;5082298;28;20714;-73
2022/03/21 07:05:10;;;;;;;23.20;15.93;;;2.80;99.90;;;;;;5091520;28;20443;-78
2022/03/21 07:07:36;;;;;;;24.83;17.17;;;2.90;99.90;;;;;;5095027;28;20032;-72
2022/03/21 07:10:02;;;;;;;23.42;15.55;;;2.90;99.90;;;;;;5097246;28;20044;-72
2022/03/21 07:12:28;;;;;;;29.80;19.23;;;3.00;99.90;;;;;;5097055;28;20059;-72
2022/03/21 07:14:53;;;;;;;34.90;22.55;;;3.10;99.90;;;;;;5099374;28;20071;-72
2022/03/21 07:17:20;;;;;;;33.35;21.65;;;3.10;99.90;;;;;;5105326;28;20032;-72
2022/03/21 07:19:46;;;;;;;32.53;20.45;;;3.20;99.90;;;;;;5104727;28;20150;-72
2022/03/21 07:22:12;;;;;;;32.58;21.63;;;3.30;99.90;;;;;;5083986;28;20086;-73
2022/03/21 07:24:38;;;;;;;34.22;22.73;;;3.30;99.90;;;;;;5087052;28;20039;-73
2022/03/21 07:27:04;;;;;;;40.83;24.67;;;3.40;99.90;;;;;;5106666;28;20096;-73
2022/03/21 07:29:30;;;;;;;37.90;22.95;;;3.50;99.90;;;;;;5082929;28;20493;-73
2022/03/21 07:31:57;;;;;;;38.22;23.42;;;3.60;99.90;;;;;;5080774;28;20226;-73
2022/03/21 07:34:23;;;;;;;41.78;25.13;;;3.70;99.90;;;;;;5102409;28;20070;-73
2022/03/21 07:36:49;;;;;;;43.50;25.50;;;3.80;99.90;;;;;;5072091;28;20047;-75
2022/03/21 07:39:14;;;;;;;44.28;25.58;;;3.90;99.90;;;;;;5105177;28;20047;-75
2022/03/21 07:41:40;;;;;;;46.17;26.27;;;4.00;99.90;;;;;;5094002;28;20048;-74
2022/03/21 07:44:06;;;;;;;37.97;23.48;;;4.10;99.90;;;;;;5093203;28;20087;-74
2022/03/21 07:49:16;;;;;;;39.00;24.65;;;4.30;99.90;;;;;;5106604;27;20063;-75
2022/03/21 07:51:43;;;;;;;42.75;25.55;;;4.30;99.90;;;;;;5109564;28;20630;-75
2022/03/21 07:54:12;;;;;;;42.53;25.33;;;4.40;99.90;;;;;;5073904;28;20520;-75
2022/03/21 07:56:38;;;;;;;39.80;25.20;;;4.50;99.90;;;;;;5073265;28;20108;-74
2022/03/21 07:59:04;;;;;;;44.00;26.05;;;4.60;99.90;;;;;;5085973;28;20682;-74
2022/03/21 08:01:30;;;;;;;42.40;25.05;;;4.70;99.90;;;;;;5086132;28;20542;-74
2022/03/21 08:04:00;;;;;;;43.13;25.90;;;4.80;99.90;;;;;;5087768;28;20154;-74
2022/03/21 08:06:26;;;;;;;36.88;23.35;;;4.90;99.90;;;;;;5078967;28;21809;-74
2022/03/21 08:08:54;;;;;;;39.80;24.38;;;5.00;99.90;;;;;;5084886;28;20058;-74
2022/03/21 08:11:20;;;;;;;40.55;23.50;;;5.10;99.90;;;;;;5097635;28;20126;-74
2022/03/21 08:13:49;;;;;;;36.97;22.45;;;5.20;99.90;;;;;;5088610;28;20067;-73
2022/03/21 08:16:19;;;;;;;40.05;22.48;;;5.30;99.90;;;;;;5084835;28;20066;-72
2022/03/21 08:18:47;;;;;;;39.80;22.40;;;5.40;99.90;;;;;;5078823;28;20086;-72
2022/03/21 08:21:12;;;;;;;36.97;22.17;;;5.50;99.90;;;;;;5094652;28;20134;-72
2022/03/21 08:23:38;;;;;;;36.25;21.42;;;5.60;99.90;;;;;;5106488;27;20409;-72
2022/03/21 08:26:03;;;;;;;37.65;21.33;;;5.70;99.90;;;;;;5108743;28;20043;-72
2022/03/21 08:28:29;;;;;;;40.08;22.05;;;5.90;99.90;;;;;;5100290;28;20109;-71
2022/03/21 08:30:54;;;;;;;37.90;22.27;;;5.90;99.90;;;;;;5108035;28;20139;-71
2022/03/21 08:33:20;;;;;;;36.45;21.10;;;6.10;99.90;;;;;;5067562;28;20093;-71
2022/03/21 08:35:46;;;;;;;34.92;21.05;;;6.10;99.90;;;;;;5088183;27;20092;-72
2022/03/21 08:38:12;;;;;;;34.95;21.83;;;6.20;99.90;;;;;;5101208;28;20092;-72
2022/03/21 08:40:38;;;;;;;34.13;20.92;;;6.40;99.90;;;;;;5073636;28;20442;-72
2022/03/21 08:43:04;;;;;;;33.58;20.83;;;6.50;99.90;;;;;;5104278;28;20093;-72
2022/03/21 08:45:30;;;;;;;31.20;20.23;;;6.60;99.90;;;;;;5097374;28;20086;-72
2022/03/21 08:47:56;;;;;;;32.08;21.77;;;6.70;99.90;;;;;;5097765;28;20087;-72
2022/03/21 08:50:21;;;;;;;33.95;21.00;;;6.80;99.90;;;;;;5099944;28;20047;-72
2022/03/21 08:52:47;;;;;;;33.30;20.70;;;6.90;99.90;;;;;;5104938;28;20116;-72
2022/03/21 08:55:12;;;;;;;32.75;20.33;;;7.00;99.90;;;;;;5091606;28;20039;-72
2022/03/21 08:57:38;;;;;;;34.10;21.00;;;7.20;99.90;;;;;;5097344;28;20116;-73
2022/03/21 09:00:07;;;;;;;31.30;17.95;;;7.30;99.90;;;;;;5073168;28;20094;-73
2022/03/21 09:02:33;;;;;;;30.95;20.15;;;7.40;99.90;;;;;;5086938;28;20436;-73
2022/03/21 09:04:59;;;;;;;31.25;20.60;;;7.50;99.90;;;;;;5099261;28;20036;-73
2022/03/21 09:07:25;;;;;;;30.40;19.70;;;7.60;99.90;;;;;;5095156;28;20051;-73
2022/03/21 09:09:51;;;;;;;31.98;19.20;;;7.80;99.90;;;;;;5107543;28;20143;-73
2022/03/21 09:12:16;;;;;;;32.55;19.48;;;7.90;99.90;;;;;;5107567;28;20529;-73
2022/03/21 09:14:42;;;;;;;29.73;19.63;;;8.00;99.90;;;;;;5098207;28;20386;-73
2022/03/21 09:17:08;;;;;;;32.30;20.25;;;8.10;99.90;;;;;;5091596;27;20040;-74
2022/03/21 09:19:34;;;;;;;30.85;20.52;;;8.20;99.90;;;;;;5089188;28;20309;-73
2022/03/21 09:22:00;;;;;;;30.27;20.05;;;8.30;99.90;;;;;;5101759;28;20125;-74
2022/03/21 09:24:26;;;;;;;31.00;19.40;;;8.40;99.90;;;;;;5095282;28;20351;-74
2022/03/21 09:26:51;;;;;;;30.63;19.15;;;8.50;99.90;;;;;;5087977;27;20468;-73
2022/03/21 09:29:17;;;;;;;29.20;19.85;;;8.60;99.90;;;;;;5099846;28;20126;-74
2022/03/21 09:31:43;;;;;;;30.17;19.17;;;8.70;99.90;;;;;;5093423;28;20035;-74
2022/03/21 09:34:10;;;;;;;30.45;19.45;;;8.80;99.90;;;;;;5102721;28;20123;-74
2022/03/21 09:36:37;;;;;;;29.65;19.35;;;9.00;99.90;;;;;;5107427;28;20068;-73
2022/03/21 09:39:04;;;;;;;28.55;19.05;;;9.10;99.90;;;;;;5101769;28;20075;-74
2022/03/21 09:41:30;;;;;;;30.80;19.58;;;9.10;99.90;;;;;;5091444;28;20078;-73
2022/03/21 09:44:00;;;;;;;31.20;19.42;;;9.20;99.90;;;;;;5085900;28;20059;-74
2022/03/21 09:46:26;;;;;;;30.27;18.17;;;9.30;99.90;;;;;;5078935;27;20055;-74
2022/03/21 09:48:56;;;;;;;30.45;18.90;;;9.40;99.90;;;;;;5088560;28;20056;-74
2022/03/21 09:51:24;;;;;;;26.25;17.10;;;9.50;99.90;;;;;;5066585;28;20122;-73
2022/03/21 09:53:50;;;;;;;27.63;19.45;;;9.60;99.90;;;;;;5100394;28;20524;-74
2022/03/21 09:56:17;;;;;;;29.45;18.10;;;9.60;99.90;;;;;;5099185;28;20232;-74
2022/03/21 09:58:43;;;;;;;29.42;18.42;;;9.70;99.90;;;;;;5088980;28;20481;-74
2022/03/21 10:01:11;;;;;;;28.60;18.60;;;9.80;99.90;;;;;;5095860;28;20058;-74
2022/03/21 10:03:40;;;;;;;27.45;17.35;;;9.90;99.90;;;;;;5096396;28;20040;-74
2022/03/21 10:06:29;;;;;;;27.55;17.15;;;10.00;99.90;;;;;;5086472;27;20046;-73
2022/03/21 10:09:15;;;;;;;28.40;17.35;;;10.00;99.90;;;;;;5098506;28;20099;-74
2022/03/21 10:11:57;;;;;;;25.15;17.30;;;10.10;99.90;;;;;;5085118;28;20163;-74
2022/03/21 10:14:33;;;;;;;30.00;18.88;;;10.20;99.90;;;;;;5085729;28;20043;-75
2022/03/21 10:17:02;;;;;;;25.15;16.98;;;10.30;99.90;;;;;;5091702;28;20465;-74
2022/03/21 10:19:41;;;;;;;31.88;19.20;;;10.30;99.90;;;;;;5085773;28;20063;-74
2022/03/21 10:22:10;;;;;;;24.92;18.10;;;10.40;99.90;;;;;;5066301;28;20517;-74
2022/03/21 10:24:41;;;;;;;29.10;20.10;;;10.40;99.90;;;;;;5101442;28;20119;-74
2022/03/21 10:27:24;;;;;;;32.50;20.52;;;10.50;99.90;;;;;;5100213;28;20040;-74
2022/03/21 10:29:52;;;;;;;23.73;15.82;;;10.60;99.90;;;;;;5085511;28;20512;-73
2022/03/21 10:32:31;;;;;;;27.55;19.48;;;10.60;99.90;;;;;;5067968;28;20051;-72
2022/03/21 10:35:17;;;;;;;28.90;18.63;;;10.70;99.90;;;;;;5077619;28;21539;-72
2022/03/21 10:37:51;;;;;;;27.77;18.40;;;10.80;99.90;;;;;;5091066;28;20040;-72
2022/03/21 10:40:33;;;;;;;25.95;17.52;;;10.90;99.90;;;;;;5084469;28;20435;-72
2022/03/21 10:43:05;;;;;;;26.27;17.10;;;10.90;99.90;;;;;;5081994;28;20621;-72
2022/03/21 10:45:52;;;;;;;28.90;18.40;;;11.00;99.90;;;;;;5084458;28;20052;-72
2022/03/21 10:48:21;;;;;;;30.85;17.65;;;11.00;99.90;;;;;;5093821;28;20462;-73
2022/03/21 10:50:55;;;;;;;27.20;17.80;;;11.00;99.90;;;;;;5086592;28;20465;-74
2022/03/21 10:53:26;;;;;;;24.80;17.80;;;11.10;99.90;;;;;;5089596;28;20158;-72
2022/03/21 10:56:04;;;;;;;26.65;17.50;;;11.10;99.90;;;;;;5089480;28;20039;-72
2022/03/21 10:58:50;;;;;;;28.92;17.58;;;11.10;99.90;;;;;;5085216;28;20044;-72
2022/03/21 11:01:18;;;;;;;27.33;18.27;;;11.20;99.90;;;;;;5082981;28;20048;-73
2022/03/21 11:03:49;;;;;;;26.27;17.70;;;11.30;99.90;;;;;;5067802;28;20051;-73
2022/03/21 11:06:14;;;;;;;28.65;18.50;;;11.30;99.90;;;;;;5092840;28;20489;-73
2022/03/21 11:08:41;;;;;;;24.45;16.75;;;11.30;99.90;;;;;;5085787;28;20250;-74
2022/03/21 11:11:08;;;;;;;26.85;17.17;;;11.30;99.90;;;;;;5089512;28;20128;-74
2022/03/21 11:13:36;;;;;;;27.30;17.92;;;11.40;99.90;;;;;;5085415;28;20100;-74
2022/03/21 11:16:03;;;;;;;26.45;17.90;;;11.40;99.90;;;;;;5088452;28;20288;-74
2022/03/21 11:18:29;;;;;;;23.48;16.02;;;11.50;99.90;;;;;;5092777;28;20457;-74
2022/03/21 11:20:59;;;;;;;25.42;17.23;;;11.50;99.90;;;;;;5087809;28;20354;-74
2022/03/21 11:23:27;;;;;;;25.17;17.20;;;11.60;99.90;;;;;;5060517;28;20654;-74
2022/03/21 11:26:00;;;;;;;27.15;17.27;;;11.60;99.90;;;;;;5078549;28;20051;-75
2022/03/21 11:28:48;;;;;;;25.13;17.58;;;11.70;99.90;;;;;;5091448;28;20055;-73
2022/03/21 11:31:21;;;;;;;25.27;16.63;;;11.70;99.90;;;;;;5073816;28;20457;-74
2022/03/21 11:33:52;;;;;;;27.55;17.20;;;11.80;99.80;;;;;;5073550;28;20067;-74
2022/03/21 11:36:18;;;;;;;23.55;16.08;;;11.90;99.70;;;;;;5091550;28;20050;-76
2022/03/21 11:38:46;;;;;;;27.75;16.50;;;11.90;95.60;;;;;;5091334;28;20386;-76
2022/03/21 11:41:24;;;;;;;23.77;15.98;;;12.00;95.00;;;;;;5095080;28;20048;-76
2022/03/21 11:44:08;;;;;;;26.17;16.40;;;12.00;96.00;;;;;;5100968;28;20048;-74
2022/03/21 11:46:34;;;;;;;25.90;16.42;;;12.10;94.90;;;;;;5104397;28;20069;-76
2022/03/21 11:49:05;;;;;;;25.13;15.82;;;12.10;96.70;;;;;;5075720;28;20516;-75
2022/03/21 11:51:40;;;;;;;23.80;15.45;;;12.20;97.10;;;;;;5083195;28;20052;-74
2022/03/21 11:54:31;;;;;;;23.55;15.43;;;12.20;97.00;;;;;;5070487;28;20039;-74
2022/03/21 11:57:23;;;;;;;26.08;14.88;;;12.30;95.80;;;;;;5077176;28;20063;-74
2022/03/21 11:59:52;;;;;;;22.95;14.55;;;12.30;92.70;;;;;;5079837;28;20077;-74
2022/03/21 12:02:17;;;;;;;23.27;15.98;;;12.40;94.40;;;;;;5087657;28;20052;-74
2022/03/21 12:04:56;;;;;;;23.73;15.00;;;12.50;92.70;;;;;;5076047;28;20051;-74
2022/03/21 12:07:22;;;;;;;25.02;14.98;;;12.50;92.00;;;;;;5076060;28;20096;-74
2022/03/21 12:09:55;;;;;;;23.83;15.85;;;12.50;92.80;;;;;;5065629;28;20036;-74
2022/03/21 12:12:23;;;;;;;24.92;16.05;;;12.60;92.30;;;;;;5070764;28;20044;-74
2022/03/21 12:14:56;;;;;;;23.80;15.20;;;12.60;93.20;;;;;;5077546;28;20177;-75
2022/03/21 12:17:22;;;;;;;21.60;14.57;;;12.70;91.90;;;;;;5069742;28;20040;-74
2022/03/21 12:22:34;;;;;;;23.08;14.57;;;12.70;91.80;;;;;;5090757;28;20044;-75
2022/03/21 12:25:08;;;;;;;22.17;14.63;;;12.80;91.40;;;;;;5081699;28;21583;-75
2022/03/21 12:27:33;;;;;;;23.88;15.77;;;12.90;90.20;;;;;;5076365;28;20051;-75
2022/03/21 12:30:21;;;;;;;22.25;14.50;;;13.00;87.90;;;;;;5078879;28;20071;-75
2022/03/21 12:32:57;;;;;;;23.50;15.52;;;13.00;87.90;;;;;;5075417;28;20036;-75
2022/03/21 12:35:32;;;;;;;25.60;15.10;;;13.10;90.40;;;;;;5079966;28;20085;-75
2022/03/21 12:38:11;;;;;;;25.48;15.65;;;13.20;83.50;;;;;;5086782;28;20043;-75
2022/03/21 12:40:52;;;;;;;22.88;14.88;;;13.30;86.00;;;;;;5070019;28;20175;-75
2022/03/21 12:43:42;;;;;;;25.05;15.80;;;13.30;84.20;;;;;;5065566;28;20497;-75
2022/03/21 12:46:18;;;;;;;26.52;15.00;;;13.30;85.90;;;;;;5072135;28;20072;-75
2022/03/21 12:48:49;;;;;;;24.52;15.30;;;13.30;87.00;;;;;;5086585;28;20713;-75
2022/03/21 12:51:28;;;;;;;22.30;13.95;;;13.30;87.70;;;;;;5070933;28;20048;-75
2022/03/21 12:53:56;;;;;;;23.40;14.77;;;13.40;85.50;;;;;;5102864;27;20106;-75
2022/03/21 12:56:24;;;;;;;25.25;14.88;;;13.50;83.90;;;;;;5088575;28;20457;-75
2022/03/21 12:58:57;;;;;;;22.42;15.00;;;13.50;82.70;;;;;;5068850;28;20051;-75
2022/03/21 13:01:22;;;;;;;23.63;15.02;;;13.50;76.90;;;;;;5054305;28;20079;-75